Bosset Airport


Codes: BOT/BOT
Name: Bosset Airport
City: Bosset
Country: Papua New Guinea
Elevation: 80 ft.
Wikipedia:

Photos at Bosset Airport


   Photos courtesy of SpottingLog. You can add your own sightings and photos by signing up for a free trial today.



No photos found.

Weather at Bosset Airport


Time (UTC)DescriptionTempratureWindCloud coverageVisibilityPressureHumidity
21-Feb-2024 03:00Overcast Clouds32°C4 mph, W100%10000m1009hPa58%
21-Feb-2024 06:00Light Rain30°C2 mph, W100%10000m1009hPa68%
21-Feb-2024 09:00Light Rain28°C2 mph, SW100%10000m1010hPa80%
21-Feb-2024 12:00Overcast Clouds25°C2 mph, S100%10000m1011hPa91%
21-Feb-2024 15:00Overcast Clouds24°C0 mph, S100%10000m1010hPa92%
21-Feb-2024 18:00Overcast Clouds24°C0 mph, NW100%10000m1010hPa94%
21-Feb-2024 21:00Overcast Clouds24°C2 mph, NW100%10000m1012hPa96%
22-Feb-2024 00:00Overcast Clouds30°C2 mph, NW100%10000m1012hPa70%
22-Feb-2024 03:00Overcast Clouds35°C2 mph, NW88%10000m1008hPa49%
22-Feb-2024 06:00Overcast Clouds31°C4 mph, N91%10000m1007hPa69%
22-Feb-2024 09:00Light Rain26°C4 mph, N100%10000m1009hPa93%
22-Feb-2024 12:00Light Rain25°C2 mph, W100%10000m1011hPa95%
22-Feb-2024 15:00Moderate Rain24°C2 mph, W100%9505m1010hPa98%
22-Feb-2024 18:00Moderate Rain24°C2 mph, W100%10000m1009hPa99%
22-Feb-2024 21:00Light Rain24°C2 mph, W100%10000m1011hPa99%
23-Feb-2024 00:00Light Rain28°C2 mph, NW90%9275m1012hPa85%
23-Feb-2024 03:00Moderate Rain29°C4 mph, W93%10000m1009hPa85%
23-Feb-2024 06:00Light Rain29°C2 mph, E96%10000m1007hPa84%
23-Feb-2024 09:00Light Rain26°C0 mph, NE100%10000m1008hPa92%
23-Feb-2024 12:00Light Rain25°C2 mph, SW100%10000m1010hPa95%
23-Feb-2024 15:00Overcast Clouds24°C2 mph, SW100%10000m1009hPa97%
23-Feb-2024 18:00Overcast Clouds23°C2 mph, NW100%10000m1008hPa98%
23-Feb-2024 21:00Overcast Clouds23°C2 mph, NW96%10000m1009hPa98%
24-Feb-2024 00:00Broken Clouds30°C4 mph, NW75%10000m1010hPa65%
24-Feb-2024 03:00Scattered Clouds34°C4 mph, NW25%10000m1007hPa46%
24-Feb-2024 06:00Broken Clouds32°C4 mph, W56%10000m1004hPa60%
24-Feb-2024 09:00Overcast Clouds28°C4 mph, W100%10000m1006hPa76%
24-Feb-2024 12:00Overcast Clouds26°C4 mph, NW100%10000m1009hPa83%
24-Feb-2024 15:00Moderate Rain24°C2 mph, W93%10000m1008hPa99%
24-Feb-2024 18:00Light Rain24°C2 mph, NW95%10000m1007hPa99%
24-Feb-2024 21:00Broken Clouds23°C2 mph, NW55%10000m1009hPa99%
25-Feb-2024 00:00Scattered Clouds29°C4 mph, NW47%10000m1009hPa70%
25-Feb-2024 03:00Light Rain32°C7 mph, NW96%10000m1007hPa60%
25-Feb-2024 06:00Overcast Clouds33°C7 mph, W97%10000m1005hPa56%
25-Feb-2024 09:00Light Rain26°C4 mph, W59%10000m1007hPa90%
25-Feb-2024 12:00Light Rain24°C2 mph, W79%10000m1009hPa96%
25-Feb-2024 15:00Light Rain24°C2 mph, NW100%10000m1008hPa98%
25-Feb-2024 18:00Light Rain23°C2 mph, N100%10000m1008hPa99%
25-Feb-2024 21:00Light Rain23°C2 mph, N97%10000m1009hPa99%
26-Feb-2024 00:00Overcast Clouds26°C4 mph, N97%10000m1010hPa87%